Time;durP1;ratioP1;P1;durP2;ratioP2;P2;SDS_P1;SDS_P2;PMS_P1;PMS_P2;Temp;Humidity;BMP_temperature;BMP_pressure;BME280_temperature;BME280_humidity;BME280_pressure;Samples;Min_cycle;Max_cycle;Signal;HPM_P1;HPM_P2
2022/03/27 00:02:19;;;;;;;32.87;18.90;;;;;;;4.48;69.36;102071.06;1712707;83;21016;-74
2022/03/27 00:04:47;;;;;;;31.20;18.03;;;;;;;4.40;69.22;102071.38;1712715;83;21121;-75
2022/03/27 00:07:14;;;;;;;29.30;18.23;;;;;;;4.33;69.17;102074.31;1713010;83;21425;-74
2022/03/27 00:09:42;;;;;;;27.43;16.93;;;;;;;4.23;69.06;102075.02;1712614;83;21467;-76
2022/03/27 00:12:09;;;;;;;29.93;16.67;;;;;;;4.21;69.47;102077.60;1712921;83;21043;-74
2022/03/27 00:14:36;;;;;;;27.23;16.87;;;;;;;4.15;69.16;102076.61;1712847;83;22161;-75
2022/03/27 00:17:04;;;;;;;28.37;17.23;;;;;;;4.09;69.09;102084.30;1712636;83;21173;-74
2022/03/27 00:19:31;;;;;;;28.67;17.63;;;;;;;4.00;69.21;102087.62;1712625;83;21036;-74
2022/03/27 00:21:58;;;;;;;29.70;17.57;;;;;;;3.96;69.36;102093.19;1713034;83;21004;-75
2022/03/27 00:24:25;;;;;;;30.67;17.97;;;;;;;3.93;69.65;102099.59;1718685;83;21019;-74
2022/03/27 00:26:53;;;;;;;27.63;16.73;;;;;;;3.91;69.82;102100.02;1723303;83;21135;-74
2022/03/27 00:29:22;;;;;;;29.40;17.87;;;;;;;3.89;69.99;102100.41;1723177;83;21099;-75
2022/03/27 00:31:49;;;;;;;30.07;17.23;;;;;;;3.90;70.20;102102.56;1723119;83;20999;-75
2022/03/27 00:34:18;;;;;;;26.13;16.73;;;;;;;3.94;70.45;102106.98;1723202;83;21004;-75
2022/03/27 00:36:46;;;;;;;31.20;18.23;;;;;;;3.95;70.53;102107.41;1723258;83;21493;-74
2022/03/27 00:39:13;;;;;;;28.43;16.17;;;;;;;3.96;70.68;102106.56;1723326;83;21007;-74
2022/03/27 00:41:40;;;;;;;25.50;16.33;;;;;;;3.94;70.46;102110.88;1723251;83;21132;-75
2022/03/27 00:44:07;;;;;;;24.00;15.43;;;;;;;3.89;70.43;102109.48;1723142;83;21527;-75
2022/03/27 00:46:34;;;;;;;25.53;15.23;;;;;;;3.85;70.40;102114.58;1723177;83;21039;-74
2022/03/27 00:49:01;;;;;;;25.03;15.10;;;;;;;3.81;70.54;102120.14;1723322;83;21039;-74
2022/03/27 00:51:28;;;;;;;24.37;14.87;;;;;;;3.77;70.43;102120.94;1723310;83;21047;-74
2022/03/27 00:53:56;;;;;;;20.27;13.23;;;;;;;3.74;70.42;102120.86;1723180;83;21493;-74
2022/03/27 00:56:23;;;;;;;23.50;13.77;;;;;;;3.69;70.55;102119.50;1723089;83;21273;-74
2022/03/27 00:58:50;;;;;;;21.07;13.83;;;;;;;3.70;70.75;102116.05;1723271;83;21024;-74
2022/03/27 01:01:24;;;;;;;22.77;13.50;;;;;;;3.71;70.85;102119.50;1723255;83;21004;-74
2022/03/27 01:03:54;;;;;;;23.10;12.67;;;;;;;3.72;70.98;102123.44;1723319;83;21011;-74
2022/03/27 01:06:27;;;;;;;;;;;;;;;3.74;71.15;102126.05;1725826;83;21122;-74
2022/03/27 01:11:39;;;;;;;22.97;12.33;;;;;;;3.74;70.99;102123.05;1723245;83;21019;-76
2022/03/27 01:14:06;;;;;;;19.50;11.33;;;;;;;3.72;70.99;102116.95;1723168;83;21015;-74
2022/03/27 01:16:41;;;;;;;21.10;11.40;;;;;;;3.70;70.89;102115.17;1723430;83;21548;-74
2022/03/27 01:19:10;;;;;;;16.57;10.00;;;;;;;3.66;70.81;102110.37;1723186;83;21129;-74
2022/03/27 01:21:42;;;;;;;22.20;10.80;;;;;;;3.60;70.62;102118.43;1723518;83;21039;-74
2022/03/27 01:24:10;;;;;;;17.50;10.13;;;;;;;3.52;70.44;102120.87;1719003;83;22056;-74
2022/03/27 01:26:38;;;;;;;17.77;10.77;;;;;;;3.41;70.08;102117.19;1712628;83;21518;-73
2022/03/27 01:29:06;;;;;;;18.57;10.17;;;;;;;3.27;69.84;102114.32;1712635;83;21039;-73
2022/03/27 01:31:35;;;;;;;20.47;10.77;;;;;;;3.17;70.00;102113.70;1712715;83;21127;-73
2022/03/27 01:34:05;;;;;;;17.43;10.83;;;;;;;3.10;70.10;102121.75;1712578;83;20977;-81
2022/03/27 01:36:35;;;;;;;17.50;10.58;;;;;;;3.03;70.22;102121.18;1712745;83;21040;-74
2022/03/27 01:39:08;;;;;;;21.07;10.80;;;;;;;2.95;70.06;102117.55;1712965;83;20982;-74
2022/03/27 01:41:37;;;;;;;21.80;11.00;;;;;;;2.86;70.10;102120.81;1712734;83;21028;-74
2022/03/27 01:44:10;;;;;;;24.10;11.00;;;;;;;2.78;70.19;102118.05;1712613;83;21943;-74
2022/03/27 01:46:40;;;;;;;18.87;11.77;;;;;;;2.69;70.33;102120.44;1712547;83;21120;-74
2022/03/27 01:49:10;;;;;;;18.80;11.68;;;;;;;2.72;70.67;102116.62;1713019;83;21028;-74
2022/03/27 01:51:38;;;;;;;19.37;11.15;;;;;;;2.65;70.57;102119.47;1712868;83;21027;-74
2022/03/27 01:54:06;;;;;;;20.43;11.00;;;;;;;2.55;70.10;102119.22;1712887;83;21044;-74
2022/03/27 01:56:33;;;;;;;19.60;10.93;;;;;;;2.44;70.20;102118.98;1712600;83;21199;-74
2022/03/27 01:59:01;;;;;;;19.17;10.70;;;;;;;2.39;70.48;102123.17;1712894;83;21012;-81
2022/03/27 02:01:28;;;;;;;19.77;11.33;;;;;;;2.33;70.37;102118.73;1712694;83;21557;-74
2022/03/27 02:03:55;;;;;;;19.13;10.57;;;;;;;2.27;70.27;102113.80;1712873;83;21071;-74
2022/03/27 02:06:23;;;;;;;19.20;10.80;;;;;;;2.17;70.15;102119.19;1712594;83;21000;-74
2022/03/27 02:08:51;;;;;;;18.03;10.23;;;;;;;2.13;70.60;102123.81;1712978;83;21993;-74
2022/03/27 02:11:19;;;;;;;17.73;9.80;;;;;;;2.10;70.70;102125.03;1712599;83;21014;-74
2022/03/27 02:13:47;;;;;;;21.23;10.10;;;;;;;2.06;70.67;102136.15;1712823;83;20984;-74
2022/03/27 02:16:15;;;;;;;19.10;9.00;;;;;;;1.99;70.71;102141.13;1712600;83;21497;-74
2022/03/27 02:18:45;;;;;;;20.10;9.93;;;;;;;1.97;70.67;102141.96;1712995;83;21012;-79
2022/03/27 02:21:12;;;;;;;17.00;9.43;;;;;;;1.88;70.45;102139.11;1712812;83;21498;-74
2022/03/27 02:23:39;;;;;;;18.30;9.57;;;;;;;1.84;70.64;102138.16;1712600;83;21020;-78
2022/03/27 02:26:06;;;;;;;20.43;9.53;;;;;;;1.78;70.82;102144.05;1713066;83;20965;-74
2022/03/27 02:28:33;;;;;;;18.93;9.73;;;;;;;1.79;71.03;102142.33;1700704;84;21035;-74
2022/03/27 02:31:02;;;;;;;17.83;10.40;;;;;;;1.76;70.62;102140.95;1713466;83;21047;-79
2022/03/27 02:33:30;;;;;;;20.67;9.43;;;;;;;1.70;70.77;102137.80;1713025;83;21978;-74
2022/03/27 02:35:57;;;;;;;16.47;8.97;;;;;;;1.65;70.68;102145.83;1713027;83;20936;-74
2022/03/27 02:38:26;;;;;;;15.87;9.47;;;;;;;1.62;70.37;102148.76;1713067;83;21486;-74
2022/03/27 02:40:53;;;;;;;19.87;9.50;;;;;;;1.48;70.37;102146.66;1713094;83;21075;-74
2022/03/27 02:43:20;;;;;;;15.80;9.17;;;;;;;1.43;70.80;102150.81;1713232;83;21012;-81
2022/03/27 02:45:49;;;;;;;18.93;9.10;;;;;;;1.43;71.16;102153.82;1713078;83;21148;-74
2022/03/27 02:48:17;;;;;;;18.63;8.47;;;;;;;1.41;70.86;102156.77;1713459;83;21418;-74
2022/03/27 02:50:47;;;;;;;14.93;8.50;;;;;;;1.36;70.88;102155.76;1713114;83;21071;-73
2022/03/27 02:53:14;;;;;;;16.87;7.97;;;;;;;1.27;70.85;102152.50;1713585;83;21923;-74
2022/03/27 02:55:41;;;;;;;15.83;8.03;;;;;;;1.21;70.67;102154.91;1713124;83;21032;-75
2022/03/27 02:58:09;;;;;;;15.47;8.17;;;;;;;1.14;70.83;102160.31;1713482;83;21126;-74
2022/03/27 03:00:36;;;;;;;14.00;7.67;;;;;;;1.10;70.88;102164.91;1713058;83;20973;-74
2022/03/27 03:03:03;;;;;;;15.50;7.17;;;;;;;1.08;70.83;102163.59;1713447;83;21520;-74
2022/03/27 03:05:30;;;;;;;14.77;6.93;;;;;;;1.01;70.77;102159.06;1713090;83;20996;-75
2022/03/27 03:07:58;;;;;;;12.60;7.23;;;;;;;0.97;70.94;102157.62;1713354;83;21569;-74
2022/03/27 03:10:25;;;;;;;13.63;7.43;;;;;;;0.94;70.88;102162.69;1713147;83;21136;-74
2022/03/27 03:12:52;;;;;;;13.00;7.03;;;;;;;0.88;71.03;102156.92;1713233;83;21060;-74
2022/03/27 03:15:22;;;;;;;14.50;7.43;;;;;;;0.88;70.98;102162.96;1713168;83;21023;-75
2022/03/27 03:17:49;;;;;;;17.03;6.80;;;;;;;0.82;70.96;102161.48;1713461;83;21019;-73
2022/03/27 03:20:19;;;;;;;13.93;6.93;;;;;;;0.82;71.13;102167.07;1713375;83;21059;-74
2022/03/27 03:22:46;;;;;;;12.00;5.87;;;;;;;0.76;71.08;102161.30;1713497;83;21108;-73
2022/03/27 03:25:14;;;;;;;14.80;7.30;;;;;;;0.75;71.19;102153.50;1721965;82;21017;-77
2022/03/27 03:27:41;;;;;;;16.20;6.90;;;;;;;0.75;71.33;102155.69;1729249;83;21083;-74
2022/03/27 03:30:10;;;;;;;11.83;6.37;;;;;;;0.79;71.28;102154.94;1728689;83;21008;-73
2022/03/27 03:32:37;;;;;;;12.87;6.50;;;;;;;0.75;71.07;102154.78;1728661;83;21094;-73
2022/03/27 03:35:06;;;;;;;17.77;6.67;;;;;;;0.68;70.83;102158.89;1728775;83;21085;-73
2022/03/27 03:37:33;;;;;;;16.00;6.70;;;;;;;0.62;70.95;102157.00;1728731;83;21265;-79
2022/03/27 03:40:00;;;;;;;11.30;5.97;;;;;;;0.59;71.13;102156.91;1728764;83;21011;-73
2022/03/27 03:42:27;;;;;;;14.80;6.77;;;;;;;0.55;71.05;102160.19;1728824;83;21023;-73
2022/03/27 03:44:55;;;;;;;14.73;6.80;;;;;;;0.58;71.46;102160.70;1728716;83;21091;-74
2022/03/27 03:47:21;;;;;;;12.37;6.37;;;;;;;0.63;71.65;102159.16;1728941;83;21094;-74
2022/03/27 03:49:49;;;;;;;15.33;6.10;;;;;;;0.60;71.32;102159.93;1728800;83;20873;-73
2022/03/27 03:52:15;;;;;;;12.70;6.80;;;;;;;0.55;71.29;102152.45;1728917;83;21031;-74
2022/03/27 03:54:42;;;;;;;12.23;5.77;;;;;;;0.52;71.29;102151.06;1728749;83;21015;-74
2022/03/27 03:57:10;;;;;;;11.43;5.17;;;;;;;0.50;71.36;102153.13;1729019;83;21540;-73
2022/03/27 03:59:39;;;;;;;10.90;5.23;;;;;;;0.48;71.48;102152.23;1728676;83;21118;-74
2022/03/27 04:02:07;;;;;;;12.07;4.87;;;;;;;0.47;71.40;102158.20;1728856;83;21023;-74
2022/03/27 04:04:35;;;;;;;12.07;4.97;;;;;;;0.45;71.31;102159.45;1728635;83;21560;-73
2022/03/27 04:07:04;;;;;;;11.17;4.97;;;;;;;0.40;71.08;102160.58;1728959;83;21000;-74
2022/03/27 04:09:31;;;;;;;8.33;3.77;;;;;;;0.37;71.13;102162.20;1728855;83;21035;-75
2022/03/27 04:11:59;;;;;;;7.90;3.83;;;;;;;0.34;71.03;102170.70;1728927;83;21106;-73
2022/03/27 04:14:28;;;;;;;8.50;4.07;;;;;;;0.28;70.93;102173.47;1728610;83;21059;-73
2022/03/27 04:16:56;;;;;;;9.60;3.80;;;;;;;0.21;70.89;102176.27;1729088;82;21023;-73
2022/03/27 04:19:24;;;;;;;10.20;3.97;;;;;;;0.17;71.11;102171.44;1728770;83;21398;-73
2022/03/27 04:21:51;;;;;;;10.27;3.80;;;;;;;0.18;71.02;102180.91;1728933;83;21042;-74
2022/03/27 04:24:19;;;;;;;7.23;3.20;;;;;;;0.12;70.96;102180.70;1728647;83;22014;-73
2022/03/27 04:26:46;;;;;;;8.47;3.63;;;;;;;0.07;70.97;102187.41;1723185;83;21028;-73
2022/03/27 04:29:14;;;;;;;6.43;3.77;;;;;;;0.04;71.03;102184.72;1723255;83;21027;-74
2022/03/27 04:31:41;;;;;;;5.83;2.50;;;;;;;-0.01;70.92;102183.27;1723578;83;21039;-73
2022/03/27 04:34:09;;;;;;;5.47;2.73;;;;;;;-0.05;70.84;102192.14;1723192;83;20976;-74
2022/03/27 04:36:37;;;;;;;9.97;3.67;;;;;;;-0.10;70.65;102191.10;1723178;83;22020;-73
2022/03/27 04:39:05;;;;;;;9.40;3.40;;;;;;;-0.14;70.78;102191.80;1723162;83;21023;-73
2022/03/27 04:41:33;;;;;;;7.40;3.03;;;;;;;-0.16;70.90;102196.05;1723215;83;20992;-74
2022/03/27 04:44:00;;;;;;;7.90;3.13;;;;;;;-0.18;70.88;102191.24;1723502;82;20995;-73
2022/03/27 04:46:27;;;;;;;7.70;3.37;;;;;;;-0.26;70.66;102190.96;1723297;83;21038;-73
2022/03/27 04:48:55;;;;;;;9.90;3.70;;;;;;;-0.33;70.80;102196.31;1723633;82;21500;-73
2022/03/27 04:51:22;;;;;;;9.17;4.13;;;;;;;-0.33;71.07;102196.31;1723191;83;21023;-73
2022/03/27 04:53:49;;;;;;;8.07;3.60;;;;;;;-0.34;71.21;102192.37;1723933;81;21030;-74
2022/03/27 04:56:17;;;;;;;10.00;4.10;;;;;;;-0.33;71.09;102198.89;1719857;82;21000;-74
2022/03/27 04:58:44;;;;;;;9.00;4.00;;;;;;;-0.33;71.26;102204.05;1714524;82;21023;-74
2022/03/27 05:01:11;;;;;;;10.40;4.10;;;;;;;-0.33;71.37;102205.33;1712610;82;21465;-76
2022/03/27 05:03:39;;;;;;;9.67;4.73;;;;;;;-0.35;71.20;102206.09;1723331;82;20896;-75
2022/03/27 05:06:06;;;;;;;10.00;5.23;;;;;;;-0.39;71.27;102215.39;1732058;82;21055;-74
2022/03/27 05:08:33;;;;;;;11.17;4.83;;;;;;;-0.40;71.35;102207.62;1729117;82;21066;-74
2022/03/27 05:11:00;;;;;;;19.07;7.50;;;;;;;-0.43;71.29;102210.09;1731239;82;20995;-74
2022/03/27 05:13:27;;;;;;;15.43;7.87;;;;;;;-0.43;71.98;102212.66;1732376;82;21091;-73
2022/03/27 05:15:54;;;;;;;13.43;6.83;;;;;;;-0.34;72.37;102215.16;1732389;82;20969;-74
2022/03/27 05:18:21;;;;;;;13.80;6.80;;;;;;;-0.27;72.43;102222.30;1732398;82;21023;-74
2022/03/27 05:20:48;;;;;;;13.20;7.60;;;;;;;-0.25;72.24;102228.39;1732480;82;20992;-74
2022/03/27 05:23:15;;;;;;;12.40;6.93;;;;;;;-0.26;72.30;102227.91;1732394;82;21532;-74
2022/03/27 05:25:45;;;;;;;13.93;7.37;;;;;;;-0.25;72.30;102233.93;1729124;82;21942;-74
2022/03/27 05:28:11;;;;;;;15.77;7.47;;;;;;;-0.25;72.47;102226.20;1724255;82;20981;-77
2022/03/27 05:30:38;;;;;;;16.10;7.83;;;;;;;-0.22;72.51;102232.78;1724224;83;21521;-77
2022/03/27 05:33:06;;;;;;;18.40;8.83;;;;;;;-0.22;72.62;102236.65;1724324;83;20948;-75
2022/03/27 05:35:33;;;;;;;14.20;8.33;;;;;;;-0.18;72.86;102235.92;1724455;83;21126;-77
2022/03/27 05:38:00;;;;;;;16.07;7.30;;;;;;;-0.14;72.98;102238.19;1724308;83;21180;-79
2022/03/27 05:40:28;;;;;;;14.63;7.73;;;;;;;-0.08;73.18;102239.73;1724150;83;21443;-75
2022/03/27 05:42:55;;;;;;;13.07;6.67;;;;;;;0.00;73.24;102234.44;1724198;83;21050;-79
2022/03/27 05:45:23;;;;;;;13.17;6.50;;;;;;;0.10;73.26;102240.78;1724172;83;20988;-78
2022/03/27 05:47:52;;;;;;;12.83;6.87;;;;;;;0.18;73.38;102242.80;1722884;83;48329;-79
2022/03/27 05:50:22;;;;;;;16.27;7.73;;;;;;;0.26;73.41;102234.47;1704216;83;21134;-75
2022/03/27 05:52:51;;;;;;;15.38;7.47;;;;;;;0.35;73.43;102234.77;1694032;84;21004;-78
2022/03/27 05:55:20;;;;;;;18.02;7.65;;;;;;;0.44;73.58;102224.37;1712290;83;21948;-79
2022/03/27 05:57:48;;;;;;;11.53;6.63;;;;;;;0.55;73.54;102230.28;1699503;84;21024;-76
2022/03/27 06:00:20;;;;;;;12.80;7.40;;;;;;;0.65;73.49;102227.19;1696125;84;21604;-75
2022/03/27 06:02:48;;;;;;;14.10;6.23;;;;;;;0.77;73.40;102224.98;1715466;83;21270;-77
2022/03/27 06:05:17;;;;;;;14.73;6.20;;;;;;;0.89;73.22;102227.98;1715577;83;21027;-79
2022/03/27 06:07:50;;;;;;;10.83;5.23;;;;;;;1.03;73.13;102232.30;1699391;84;21048;-74
2022/03/27 06:10:33;;;;;;;10.67;4.50;;;;;;;1.15;72.79;102239.54;1696221;84;21044;-78
2022/03/27 06:13:04;;;;;;;10.20;4.97;;;;;;;1.28;72.67;102240.80;1695409;84;21059;-74
2022/03/27 06:15:33;;;;;;;12.90;5.80;;;;;;;1.43;72.42;102245.55;1696201;84;21138;-75
2022/03/27 06:18:00;;;;;;;10.80;5.10;;;;;;;1.56;72.23;102248.55;1696160;84;21008;-74
2022/03/27 06:20:30;;;;;;;11.47;4.97;;;;;;;1.68;72.08;102242.84;1685750;84;21573;-79
2022/03/27 06:22:58;;;;;;;12.10;6.05;;;;;;;1.81;71.94;102241.92;1681993;85;27587;-75
2022/03/27 06:25:27;;;;;;;13.17;5.87;;;;;;;1.93;71.66;102234.50;1682901;85;21229;-79
2022/03/27 06:27:55;;;;;;;10.03;5.03;;;;;;;2.06;71.30;102244.36;1683594;85;21784;-74
2022/03/27 06:30:26;;;;;;;10.17;3.90;;;;;;;2.19;71.07;102245.55;1705249;84;21007;-74
2022/03/27 06:32:54;;;;;;;9.00;3.60;;;;;;;2.31;70.61;102243.30;1724723;83;21050;-74
2022/03/27 06:35:23;;;;;;;9.00;3.60;;;;;;;2.45;70.24;102248.42;1725061;83;21009;-73
2022/03/27 06:37:52;;;;;;;7.00;3.60;;;;;;;2.57;69.92;102245.69;1706569;84;21000;-74
2022/03/27 06:40:20;;;;;;;11.33;4.17;;;;;;;2.69;69.76;102244.72;1706781;84;21115;-76
2022/03/27 06:42:49;;;;;;;7.80;3.93;;;;;;;2.82;69.60;102244.16;1715082;83;21050;-79
2022/03/27 06:45:18;;;;;;;7.60;4.00;;;;;;;2.94;69.33;102251.37;1697323;83;21009;-75
2022/03/27 06:47:48;;;;;;;9.83;4.87;;;;;;;3.04;68.73;102252.45;1690809;84;21058;-77
2022/03/27 06:50:19;;;;;;;11.67;3.93;;;;;;;3.15;68.34;102251.41;1682028;85;21555;-75
2022/03/27 06:52:47;;;;;;;8.15;3.72;;;;;;;3.24;68.12;102247.33;1682221;85;21139;-74
2022/03/27 06:55:16;;;;;;;8.07;3.20;;;;;;;3.33;67.90;102248.82;1732154;82;21016;-74
2022/03/27 06:57:44;;;;;;;7.47;3.23;;;;;;;3.45;67.65;102250.80;1697046;84;21020;-78
2022/03/27 07:03:02;;;;;;;10.67;4.40;;;;;;;3.69;66.81;102257.37;1697046;84;21435;-74
2022/03/27 07:05:42;;;;;;;8.37;3.67;;;;;;;3.80;66.89;102259.33;1682121;85;21164;-73
2022/03/27 07:08:19;;;;;;;5.27;2.50;;;;;;;3.94;66.89;102259.62;1696818;84;21291;-74
2022/03/27 07:10:49;;;;;;;6.23;2.70;;;;;;;4.08;66.50;102257.30;1697186;84;20973;-74
2022/03/27 07:13:18;;;;;;;6.47;2.60;;;;;;;4.25;66.26;102255.02;1697800;84;21580;-79
2022/03/27 07:15:47;;;;;;;4.73;2.50;;;;;;;4.39;65.66;102257.44;1734713;82;21042;-74
2022/03/27 07:18:20;;;;;;;6.87;3.00;;;;;;;4.51;65.10;102248.98;1736128;82;21579;-75
2022/03/27 07:20:46;;;;;;;10.30;2.95;;;;;;;4.61;64.93;102239.22;1735025;82;26327;-74
2022/03/27 07:23:17;;;;;;;6.37;2.80;;;;;;;4.73;64.45;102250.66;1736072;82;21023;-74
2022/03/27 07:25:48;;;;;;;6.60;3.03;;;;;;;4.82;64.02;102249.50;1736359;82;21133;-74
2022/03/27 07:28:22;;;;;;;7.43;3.03;;;;;;;4.94;63.69;102265.73;1736133;82;21034;-74
2022/03/27 07:30:48;;;;;;;7.23;3.50;;;;;;;5.05;63.24;102267.66;1735023;82;21157;-74
2022/03/27 07:33:17;;;;;;;8.50;3.30;;;;;;;5.13;62.96;102262.14;1736189;82;21476;-74
2022/03/27 07:35:47;;;;;;;5.37;2.20;;;;;;;5.23;62.71;102257.94;1736337;82;21015;-74
2022/03/27 07:38:16;;;;;;;6.27;2.60;;;;;;;5.35;62.40;102265.07;1736451;82;21027;-74
2022/03/27 07:40:45;;;;;;;5.80;2.20;;;;;;;5.50;61.77;102267.00;1736390;82;21086;-77
2022/03/27 07:43:12;;;;;;;5.37;2.70;;;;;;;5.63;60.89;102271.52;1735913;82;21503;-75
2022/03/27 07:45:39;;;;;;;5.80;2.70;;;;;;;5.70;60.44;102259.45;1736134;82;21262;-75
2022/03/27 07:48:07;;;;;;;5.20;2.40;;;;;;;5.81;60.41;102261.33;1736325;82;21027;-84
2022/03/27 07:50:34;;;;;;;8.17;2.60;;;;;;;5.94;60.24;102250.69;1736339;82;21512;-75
2022/03/27 07:53:02;;;;;;;6.67;2.53;;;;;;;6.09;59.90;102253.88;1739725;81;21516;-77
2022/03/27 07:55:30;;;;;;;6.93;2.60;;;;;;;6.22;59.32;102251.00;1746569;81;21499;-77
2022/03/27 07:57:58;;;;;;;6.43;2.53;;;;;;;6.28;58.95;102252.36;1753250;81;21489;-77
2022/03/27 08:00:27;;;;;;;8.00;3.13;;;;;;;6.31;58.48;102249.78;1743872;81;21003;-75
2022/03/27 08:02:54;;;;;;;6.80;3.10;;;;;;;6.38;58.27;102246.83;1736562;82;21504;-78
2022/03/27 08:05:21;;;;;;;6.03;2.20;;;;;;;6.48;58.12;102249.54;1736281;82;21539;-73
2022/03/27 08:07:48;;;;;;;6.57;2.67;;;;;;;6.62;57.76;102240.95;1736547;82;21109;-73
2022/03/27 08:10:15;;;;;;;4.93;2.53;;;;;;;6.74;57.78;102238.91;1736239;82;21014;-73
2022/03/27 08:12:43;;;;;;;8.10;2.60;;;;;;;6.95;57.39;102227.31;1739513;81;21479;-75
2022/03/27 08:15:10;;;;;;;6.20;2.20;;;;;;;7.10;56.89;102229.18;1743504;81;20893;-75
2022/03/27 08:17:37;;;;;;;5.83;1.80;;;;;;;7.21;56.11;102230.55;1736527;82;21615;-73
2022/03/27 08:20:06;;;;;;;3.33;1.60;;;;;;;7.30;55.61;102234.08;1738891;81;21934;-75
2022/03/27 08:22:33;;;;;;;3.87;1.60;;;;;;;7.41;55.27;102231.53;1744783;81;21021;-82
2022/03/27 08:25:00;;;;;;;4.83;1.43;;;;;;;7.56;55.04;102223.77;1737802;82;20999;-76
2022/03/27 08:27:27;;;;;;;3.87;1.30;;;;;;;7.73;54.44;102221.66;1712659;81;21016;-77
2022/03/27 08:29:54;;;;;;;4.73;1.50;;;;;;;7.91;53.75;102217.81;1760541;81;20995;-75
2022/03/27 08:32:21;;;;;;;4.13;1.67;;;;;;;8.04;53.24;102230.48;1760746;81;21102;-74
2022/03/27 08:34:48;;;;;;;3.87;1.80;;;;;;;8.19;52.81;102232.25;1757403;81;21461;-80
2022/03/27 08:37:17;;;;;;;5.13;1.77;;;;;;;8.33;52.13;102233.14;1737583;82;21006;-78
2022/03/27 08:39:45;;;;;;;4.47;1.83;;;;;;;8.41;51.38;102244.95;1737164;82;21037;-78
2022/03/27 08:42:16;;;;;;;3.83;1.77;;;;;;;8.47;50.93;102234.06;1737587;82;20993;-77
2022/03/27 08:44:43;;;;;;;4.90;1.80;;;;;;;8.58;51.19;102234.52;1737238;82;21353;-79
2022/03/27 08:47:22;;;;;;;3.63;1.53;;;;;;;8.80;51.00;102234.95;1737249;82;20998;-78
2022/03/27 08:49:56;;;;;;;4.13;1.60;;;;;;;9.09;50.97;102237.55;1737139;82;21022;-81
2022/03/27 08:52:58;;;;;;;5.30;3.00;;;;;;;9.29;50.39;102232.28;1732714;82;21021;-79
2022/03/27 08:55:39;;;;;;;5.73;2.83;;;;;;;9.41;49.57;102232.67;1737216;82;21072;-80
2022/03/27 08:58:10;;;;;;;8.60;3.70;;;;;;;9.56;48.93;102237.88;1737663;82;21847;-80
2022/03/27 09:00:37;;;;;;;;;;;;;;;9.73;48.42;102246.11;1739822;82;21025;-80
2022/03/27 09:03:06;;;;;;;4.17;1.70;;;;;;;9.80;47.55;102249.12;1737575;82;20334;-81
2022/03/27 09:05:39;;;;;;;4.43;1.37;;;;;;;9.85;47.43;102242.56;1737236;82;21590;-77
2022/03/27 09:08:09;;;;;;;5.93;1.63;;;;;;;10.00;48.12;102242.06;1737303;82;21005;-79
2022/03/27 09:10:38;;;;;;;4.90;1.87;;;;;;;10.27;47.85;102242.34;1737377;82;21126;-79
2022/03/27 09:13:13;;;;;;;3.57;2.00;;;;;;;10.46;47.19;102239.16;1737313;82;20973;-79
2022/03/27 09:15:42;;;;;;;3.30;1.57;;;;;;;10.52;46.58;102235.62;1737463;82;21064;-79
2022/03/27 09:18:12;;;;;;;3.47;1.40;;;;;;;10.63;46.32;102228.99;1737521;81;21017;-79
2022/03/27 09:20:51;;;;;;;3.33;1.62;;;;;;;10.71;46.00;102229.80;1737588;82;21100;-80
2022/03/27 09:23:30;;;;;;;5.80;1.80;;;;;;;10.84;45.94;102218.78;1737304;82;21111;-79
2022/03/27 09:26:13;;;;;;;3.98;1.90;;;;;;;11.06;45.57;102214.20;1737506;82;21029;-79
2022/03/27 09:28:43;;;;;;;4.47;2.10;;;;;;;11.13;44.89;102210.16;1737127;82;21060;-80
2022/03/27 09:31:21;;;;;;;4.50;1.57;;;;;;;11.16;44.64;102206.19;1737345;82;20998;-79
2022/03/27 09:33:55;;;;;;;3.75;1.75;;;;;;;11.23;44.57;102207.45;1737498;82;21042;-80
2022/03/27 09:36:40;;;;;;;4.87;1.52;;;;;;;11.31;44.21;102209.55;1736427;80;21142;-80
2022/03/27 09:39:20;;;;;;;4.62;2.10;;;;;;;11.38;44.03;102201.56;1737530;82;21021;-79
2022/03/27 09:41:58;;;;;;;6.55;2.25;;;;;;;11.54;43.85;102198.77;1737517;82;21004;-80
2022/03/27 09:44:33;;;;;;;4.42;1.80;;;;;;;11.80;43.70;102203.23;1737257;82;20933;-80
2022/03/27 09:47:06;;;;;;;3.55;1.98;;;;;;;12.01;43.31;102196.86;1737485;82;20974;-80
2022/03/27 09:49:50;;;;;;;5.25;1.90;;;;;;;12.30;43.72;102190.73;1737853;81;21130;-79
2022/03/27 09:52:21;;;;;;;3.12;1.72;;;;;;;12.58;43.52;102195.09;1744990;81;20927;-80
2022/03/27 09:54:55;;;;;;;3.37;1.57;;;;;;;12.77;43.06;102188.63;1747839;81;20991;-79
2022/03/27 09:57:41;;;;;;;4.33;2.00;;;;;;;12.99;42.88;102195.69;1718766;83;20996;-79
2022/03/27 10:00:22;;;;;;;4.45;1.62;;;;;;;13.13;42.53;102196.75;1704144;83;21478;-79
2022/03/27 10:02:48;;;;;;;5.10;2.37;;;;;;;13.32;42.12;102189.40;1703856;84;21132;-79
2022/03/27 10:05:18;;;;;;;5.77;2.50;;;;;;;13.53;41.93;102183.70;1704514;84;20996;-79
2022/03/27 10:07:52;;;;;;;3.35;1.72;;;;;;;13.71;41.64;102181.11;1703263;84;21074;-80
2022/03/27 10:10:22;;;;;;;4.83;2.00;;;;;;;13.88;41.34;102178.09;1717735;83;21024;-80
2022/03/27 10:12:53;;;;;;;3.80;2.40;;;;;;;13.95;40.68;102171.80;1706415;82;21030;-80
2022/03/27 10:15:22;;;;;;;;;;;;;;;14.10;40.95;102169.70;1683720;84;21540;-80
2022/03/27 10:17:54;;;;;;;3.30;1.82;;;;;;;14.31;40.20;102163.06;1703372;84;20461;-80
2022/03/27 10:20:22;;;;;;;3.37;1.60;;;;;;;14.28;39.83;102155.63;1717696;83;21365;-79
2022/03/27 10:23:00;;;;;;;3.83;2.12;;;;;;;14.46;40.12;102133.19;1673421;85;21016;-79
2022/03/27 10:25:32;;;;;;;5.20;2.00;;;;;;;14.69;39.67;102141.87;1702709;84;21004;-80
2022/03/27 10:28:01;;;;;;;4.00;2.05;;;;;;;14.75;38.98;102134.71;1689256;84;21816;-83
2022/03/27 10:30:29;;;;;;;5.65;2.30;;;;;;;14.86;39.11;102128.69;1683152;84;20992;-77
2022/03/27 10:32:57;;;;;;;4.15;2.00;;;;;;;15.13;38.89;102125.70;1654099;86;21525;-79
2022/03/27 10:35:58;;;;;;;4.05;2.00;;;;;;;15.47;37.90;102106.25;1683020;85;21027;-76
2022/03/27 10:38:39;;;;;;;3.75;2.00;;;;;;;15.47;37.90;102106.25;1624546;86;21051;-77
2022/03/27 10:41:36;;;;;;;4.62;2.35;;;;;;;15.61;37.69;102103.58;1683088;85;21161;-77
2022/03/27 10:44:36;;;;;;;3.10;1.87;;;;;;;15.71;37.55;102104.20;1654275;86;20921;-78
2022/03/27 10:47:24;;;;;;;5.55;2.30;;;;;;;15.92;37.45;102095.17;1682899;85;21027;-77
2022/03/27 10:50:09;;;;;;;4.30;2.42;;;;;;;16.20;37.46;102097.77;1654152;86;20960;-79
2022/03/27 10:52:44;;;;;;;5.42;2.33;;;;;;;16.32;36.78;102100.45;1683171;85;21072;-75
2022/03/27 10:55:14;;;;;;;4.80;2.37;;;;;;;16.42;36.15;102097.44;1653464;86;21192;-79
2022/03/27 10:57:47;;;;;;;5.67;3.05;;;;;;;16.38;35.93;102097.59;1669649;85;21564;-77
2022/03/27 11:00:17;;;;;;;4.05;2.47;;;;;;;16.50;35.89;102093.22;1669748;85;21035;-78
2022/03/27 11:02:51;;;;;;;4.20;2.37;;;;;;;16.61;35.77;102095.03;1650960;86;21086;-79
2022/03/27 11:05:36;;;;;;;4.20;2.52;;;;;;;16.74;35.50;102095.47;1654869;85;21024;-80
2022/03/27 11:08:25;;;;;;;4.62;2.52;;;;;;;16.93;35.62;102095.23;1682570;84;21532;-82
2022/03/27 11:10:55;;;;;;;3.40;2.35;;;;;;;17.09;35.01;102095.98;1705137;83;21032;-80
2022/03/27 11:13:33;;;;;;;5.25;2.80;;;;;;;17.05;34.70;102087.29;1669629;85;21036;-80
2022/03/27 11:16:11;;;;;;;5.03;2.58;;;;;;;17.25;34.92;102097.59;1668874;86;21064;-80
2022/03/27 11:18:46;;;;;;;8.80;2.83;;;;;;;17.55;34.79;102089.78;1668745;85;21527;-80
2022/03/27 11:21:24;;;;;;;5.80;2.77;;;;;;;17.76;34.65;102084.10;1668863;85;22049;-80
2022/03/27 11:23:51;;;;;;;4.28;2.27;;;;;;;17.86;34.16;102077.98;1639087;86;20956;-78
2022/03/27 11:26:29;;;;;;;4.22;2.30;;;;;;;17.90;34.07;102078.23;1668820;86;21040;-78
2022/03/27 11:29:07;;;;;;;4.17;2.58;;;;;;;18.04;33.86;102065.73;1719822;83;21036;-78
2022/03/27 11:31:36;;;;;;;4.20;2.40;;;;;;;18.14;33.66;102067.55;1705308;83;21018;-77
2022/03/27 11:34:17;;;;;;;3.70;2.30;;;;;;;18.28;33.46;102054.55;1736895;82;21103;-78
2022/03/27 11:36:50;;;;;;;3.67;2.30;;;;;;;18.56;33.51;102054.67;1736800;82;21018;-79
2022/03/27 11:39:34;;;;;;;4.75;2.62;;;;;;;18.57;32.59;102061.26;1706187;84;21054;-78
2022/03/27 11:42:28;;;;;;;5.75;2.72;;;;;;;18.41;32.37;102058.41;1719402;83;21024;-76
2022/03/27 11:45:20;;;;;;;5.28;2.47;;;;;;;18.45;32.40;102044.52;1719213;83;21031;-75
2022/03/27 11:47:55;;;;;;;6.25;2.40;;;;;;;18.67;32.29;102038.65;1719151;83;21943;-75